createdAt,value
2019-05-05T00:00:44.665Z,3.54
2019-05-05T00:03:31.721Z,3.53
2019-05-05T00:06:02.916Z,3.52
2019-05-05T00:08:32.441Z,3.51
2019-05-05T00:11:09.017Z,3.50
2019-05-05T00:13:51.993Z,3.48
2019-05-05T00:16:27.526Z,3.46
2019-05-05T00:18:57.188Z,3.45
2019-05-05T00:21:26.754Z,3.43
2019-05-05T00:23:56.219Z,3.41
2019-05-05T00:26:25.723Z,3.40
2019-05-05T00:28:55.489Z,3.39
2019-05-05T00:31:25.307Z,3.38
2019-05-05T00:33:54.857Z,3.36
2019-05-05T00:36:24.696Z,3.35
2019-05-05T00:38:55.210Z,3.33
2019-05-05T00:41:25.426Z,3.32
2019-05-05T00:43:55.491Z,3.31
2019-05-05T00:46:39.932Z,3.29
2019-05-05T00:49:09.604Z,3.27
2019-05-05T00:51:39.048Z,3.25
2019-05-05T00:54:08.534Z,3.23
2019-05-05T00:56:38.041Z,3.21
2019-05-05T00:59:14.911Z,3.22
2019-05-05T01:01:46.972Z,3.19
2019-05-05T01:04:18.115Z,3.17
2019-05-05T01:06:47.666Z,3.17
2019-05-05T01:09:18.847Z,3.14
2019-05-05T01:11:48.399Z,3.13
2019-05-05T01:14:17.938Z,3.11
2019-05-05T01:16:47.506Z,3.10
2019-05-05T01:19:17.100Z,3.10
2019-05-05T01:21:46.584Z,3.08
2019-05-05T01:24:16.071Z,3.07
2019-05-05T01:26:45.653Z,3.05
2019-05-05T01:29:15.202Z,3.04
2019-05-05T01:31:45.250Z,3.02
2019-05-05T01:34:16.490Z,3.03
2019-05-05T01:36:47.156Z,3.01
2019-05-05T01:39:26.798Z,2.99
2019-05-05T01:41:57.934Z,2.96
2019-05-05T01:44:27.476Z,2.94
2019-05-05T01:46:56.950Z,2.92
2019-05-05T01:49:26.411Z,2.91
2019-05-05T01:51:55.980Z,2.89
2019-05-05T01:54:25.430Z,2.88
2019-05-05T01:56:55.676Z,2.85
2019-05-05T01:59:25.845Z,2.85
2019-05-05T02:01:55.681Z,2.84
2019-05-05T02:04:25.262Z,2.82
2019-05-05T02:06:55.186Z,2.81
2019-05-05T02:09:25.143Z,2.80
2019-05-05T02:11:55.164Z,2.79
2019-05-05T02:14:25.353Z,2.78
2019-05-05T02:16:55.461Z,2.75
2019-05-05T02:19:25.278Z,2.74
2019-05-05T02:21:55.275Z,2.73
2019-05-05T02:24:25.304Z,2.72
2019-05-05T02:26:54.959Z,2.71
2019-05-05T02:29:27.962Z,2.68
2019-05-05T02:32:15.828Z,2.66
2019-05-05T02:34:47.284Z,2.64
2019-05-05T02:37:16.901Z,2.63
2019-05-05T02:39:58.091Z,2.63
2019-05-05T02:42:19.013Z,2.60
2019-05-05T02:44:49.211Z,2.62
2019-05-05T02:47:27.829Z,2.59
2019-05-05T02:50:01.737Z,2.58
2019-05-05T02:52:34.748Z,2.58
2019-05-05T02:55:05.810Z,2.58
2019-05-05T02:57:36.238Z,2.56
2019-05-05T03:00:25.097Z,2.57
2019-05-05T03:02:57.664Z,2.56
2019-05-05T03:05:27.682Z,2.54
2019-05-05T03:07:59.194Z,2.55
2019-05-05T03:10:30.593Z,2.56
2019-05-05T03:13:01.755Z,2.56
2019-05-05T03:15:55.045Z,2.54
2019-05-05T03:18:25.073Z,2.54
2019-05-05T03:21:02.322Z,2.53
2019-05-05T03:23:26.759Z,2.52
2019-05-05T03:25:56.691Z,2.52
2019-05-05T03:28:27.877Z,2.52
2019-05-05T03:30:57.799Z,2.54
2019-05-05T03:33:27.329Z,2.56
2019-05-05T03:35:57.261Z,2.60
2019-05-05T03:38:26.895Z,2.65
2019-05-05T03:40:58.130Z,2.69
2019-05-05T03:43:29.604Z,2.72
2019-05-05T03:46:01.285Z,2.75
2019-05-05T03:48:30.817Z,2.79
2019-05-05T03:51:00.368Z,2.82
2019-05-05T03:53:30.468Z,2.85
2019-05-05T03:56:00.190Z,2.87
2019-05-05T03:58:30.086Z,2.90
2019-05-05T04:01:35.960Z,2.94
2019-05-05T04:04:24.653Z,2.97
2019-05-05T04:06:56.147Z,3.02
2019-05-05T04:09:27.609Z,3.06
2019-05-05T04:11:57.178Z,3.10
2019-05-05T04:14:26.778Z,3.13
2019-05-05T04:17:14.314Z,3.16
2019-05-05T04:19:45.487Z,3.17
2019-05-05T04:22:15.057Z,3.18
2019-05-05T04:24:45.518Z,3.18
2019-05-05T04:27:14.975Z,3.18
2019-05-05T04:29:46.021Z,3.18
2019-05-05T04:32:15.494Z,3.18
2019-05-05T04:34:44.965Z,3.19
2019-05-05T04:37:15.101Z,3.20
2019-05-05T04:39:44.727Z,3.22
2019-05-05T04:42:14.595Z,3.25
2019-05-05T04:44:44.942Z,3.28
2019-05-05T04:47:16.258Z,3.32
2019-05-05T04:49:50.206Z,3.38
2019-05-05T04:52:24.094Z,3.40
2019-05-05T04:54:55.813Z,3.42
2019-05-05T04:57:25.370Z,3.46
2019-05-05T04:59:54.864Z,3.51
2019-05-05T05:02:36.053Z,3.56
2019-05-05T05:05:15.796Z,3.62
2019-05-05T05:07:45.266Z,3.71
2019-05-05T05:10:14.988Z,3.79
2019-05-05T05:12:44.492Z,3.87
2019-05-05T05:15:15.457Z,3.96
2019-05-05T05:17:47.809Z,4.04
2019-05-05T05:20:17.491Z,4.13
2019-05-05T05:22:47.047Z,4.20
2019-05-05T05:25:16.637Z,4.30
2019-05-05T05:27:46.106Z,4.38
2019-05-05T05:30:15.639Z,4.48
2019-05-05T05:32:45.152Z,4.56
2019-05-05T05:35:14.681Z,4.67
2019-05-05T05:37:44.861Z,4.76
2019-05-05T05:40:23.623Z,4.86
2019-05-05T05:42:54.221Z,4.95
2019-05-05T05:45:31.523Z,5.08
2019-05-05T05:48:08.432Z,5.21
2019-05-05T05:50:48.434Z,5.35
2019-05-05T05:53:17.982Z,5.49
2019-05-05T05:55:47.439Z,5.63
2019-05-05T05:58:16.928Z,5.77
2019-05-05T06:00:46.394Z,5.92
2019-05-05T06:03:15.870Z,6.08
2019-05-05T06:05:45.329Z,6.23
2019-05-05T06:08:14.829Z,6.40
2019-05-05T06:10:44.487Z,6.56
2019-05-05T06:13:15.270Z,6.70
2019-05-05T06:15:45.255Z,6.85
2019-05-05T06:18:14.756Z,6.97
2019-05-05T06:20:44.743Z,7.08
2019-05-05T06:23:14.814Z,7.18
2019-05-05T06:25:44.901Z,7.28
2019-05-05T06:28:14.774Z,7.36
2019-05-05T06:30:44.576Z,7.43
2019-05-05T06:33:14.635Z,7.48
2019-05-05T06:35:44.470Z,7.55
2019-05-05T06:38:14.049Z,7.62
2019-05-05T06:40:50.988Z,7.69
2019-05-05T06:43:35.565Z,7.78
2019-05-05T06:46:07.675Z,7.88
2019-05-05T06:48:37.134Z,7.96
2019-05-05T06:51:06.629Z,8.07
2019-05-05T06:53:36.453Z,8.18
2019-05-05T06:56:05.971Z,8.26
2019-05-05T06:58:35.534Z,8.33
2019-05-05T07:01:05.097Z,8.37
2019-05-05T07:03:34.557Z,8.40
2019-05-05T07:06:04.538Z,8.43
2019-05-05T07:08:34.749Z,8.46
2019-05-05T07:11:04.443Z,8.46
2019-05-05T07:13:34.128Z,8.48
2019-05-05T07:16:04.868Z,8.51
2019-05-05T07:18:34.490Z,8.55
2019-05-05T07:21:04.181Z,8.60
2019-05-05T07:23:34.208Z,8.65
2019-05-05T07:26:04.348Z,8.71
2019-05-05T07:28:34.357Z,8.79
2019-05-05T07:31:04.532Z,8.84
2019-05-05T07:33:34.697Z,8.90
2019-05-05T07:36:21.983Z,8.95
2019-05-05T07:38:51.520Z,8.98
2019-05-05T07:41:21.025Z,9.02
2019-05-05T07:43:50.518Z,9.02
2019-05-05T07:46:19.992Z,9.04
2019-05-05T07:48:49.523Z,9.07
2019-05-05T07:51:18.983Z,9.09
2019-05-05T07:53:48.473Z,9.10
2019-05-05T07:56:18.017Z,9.11
2019-05-05T07:58:47.791Z,9.14
2019-05-05T08:01:17.499Z,9.18
2019-05-05T08:03:46.997Z,9.25
2019-05-05T08:06:16.519Z,9.33
2019-05-05T08:08:46.073Z,9.42
2019-05-05T08:11:15.590Z,9.51
2019-05-05T08:13:45.248Z,9.60
2019-05-05T08:16:26.785Z,9.71
2019-05-05T08:19:14.070Z,9.80
2019-05-05T08:21:43.779Z,9.88
2019-05-05T08:24:17.511Z,10.03
2019-05-05T08:26:57.414Z,10.17
2019-05-05T08:29:34.737Z,10.32
2019-05-05T08:32:06.363Z,10.48
2019-05-05T08:34:35.863Z,10.58
2019-05-05T08:37:05.407Z,10.71
2019-05-05T08:39:34.988Z,10.81
2019-05-05T08:42:04.562Z,10.94
2019-05-05T08:44:34.414Z,11.04
2019-05-05T08:47:04.577Z,11.16
2019-05-05T08:49:34.808Z,11.30
2019-05-05T08:52:04.572Z,11.43
2019-05-05T08:54:34.510Z,11.53
2019-05-05T08:57:04.413Z,11.63
2019-05-05T08:59:33.956Z,11.73
2019-05-05T09:02:04.494Z,11.87
2019-05-05T09:04:34.203Z,12.01
2019-05-05T09:07:05.009Z,12.14
2019-05-05T09:09:34.827Z,12.27
2019-05-05T09:12:04.668Z,12.38
2019-05-05T09:14:34.664Z,12.48
2019-05-05T09:17:04.593Z,12.58
2019-05-05T09:19:34.590Z,12.64
2019-05-05T09:22:06.736Z,12.70
2019-05-05T09:24:44.502Z,12.73
2019-05-05T09:27:19.561Z,12.76
2019-05-05T09:29:49.056Z,12.78
2019-05-05T09:32:18.529Z,12.82
2019-05-05T09:34:48.165Z,12.86
2019-05-05T09:37:17.759Z,12.90
2019-05-05T09:39:47.258Z,12.94
2019-05-05T09:42:16.751Z,12.96
2019-05-05T09:44:46.301Z,12.97
2019-05-05T09:47:15.798Z,12.98
2019-05-05T09:49:45.273Z,12.97
2019-05-05T09:52:14.760Z,12.96
2019-05-05T09:54:44.314Z,12.95
2019-05-05T09:57:14.527Z,12.97
2019-05-05T09:59:44.419Z,12.98
2019-05-05T10:02:14.091Z,12.99
2019-05-05T10:04:44.149Z,13.03
2019-05-05T10:07:13.969Z,13.05
2019-05-05T10:09:43.902Z,13.08
2019-05-05T10:12:13.591Z,13.11
2019-05-05T10:14:44.885Z,13.19
2019-05-05T10:17:14.514Z,13.28
2019-05-05T10:19:44.148Z,13.39
2019-05-05T10:22:14.786Z,13.53
2019-05-05T10:24:46.185Z,13.67
2019-05-05T10:27:15.837Z,13.82
2019-05-05T10:29:45.395Z,13.96
2019-05-05T10:32:15.086Z,14.13
2019-05-05T10:34:46.222Z,14.32
2019-05-05T10:37:15.803Z,14.50
2019-05-05T10:39:47.008Z,14.61
2019-05-05T10:42:16.580Z,14.64
2019-05-05T10:44:46.055Z,14.60
2019-05-05T10:47:15.549Z,14.51
2019-05-05T10:49:45.099Z,14.41
2019-05-05T10:52:14.611Z,14.30
2019-05-05T10:54:45.018Z,14.23
2019-05-05T10:57:18.132Z,14.20
2019-05-05T10:59:46.022Z,14.17
2019-05-05T11:02:15.664Z,14.17
2019-05-05T11:04:46.787Z,14.17
2019-05-05T11:07:16.443Z,14.18
2019-05-05T11:09:46.126Z,14.20
2019-05-05T11:12:15.728Z,14.24
2019-05-05T11:14:45.335Z,14.27
2019-05-05T11:17:14.833Z,14.34
2019-05-05T11:19:44.379Z,14.42
2019-05-05T11:22:14.744Z,14.51
2019-05-05T11:24:57.360Z,14.61
2019-05-05T11:27:15.601Z,14.72
2019-05-05T11:30:03.945Z,14.88
2019-05-05T11:32:51.294Z,14.93
2019-05-05T11:35:24.338Z,14.92
2019-05-05T11:37:54.318Z,14.88
2019-05-05T11:40:33.113Z,14.80
2019-05-05T11:43:03.789Z,14.72
2019-05-05T11:45:34.432Z,14.67
2019-05-05T11:48:04.128Z,14.66
2019-05-05T11:50:34.600Z,14.69
2019-05-05T11:53:04.184Z,14.75
2019-05-05T11:55:33.653Z,14.82
2019-05-05T11:58:03.647Z,14.93
2019-05-05T12:00:34.724Z,15.03
2019-05-05T12:03:04.856Z,15.11
2019-05-05T12:05:34.413Z,15.09
2019-05-05T12:08:04.021Z,15.01
2019-05-05T12:10:34.507Z,14.92
2019-05-05T12:13:05.634Z,14.81
2019-05-05T12:15:35.103Z,14.72
2019-05-05T12:18:04.707Z,14.63
2019-05-05T12:20:39.812Z,14.56
2019-05-05T12:23:10.161Z,14.51
2019-05-05T12:25:48.502Z,14.46
2019-05-05T12:28:24.127Z,14.41
2019-05-05T12:31:03.599Z,14.42
2019-05-05T12:33:33.682Z,14.49
2019-05-05T12:36:04.447Z,14.57
2019-05-05T12:38:34.783Z,14.64
2019-05-05T12:41:04.563Z,14.72
2019-05-05T12:43:34.206Z,14.80
2019-05-05T12:48:50.489Z,14.91
2019-05-05T12:51:19.994Z,14.93
2019-05-05T12:53:49.604Z,14.92
2019-05-05T12:56:19.382Z,14.94
2019-05-05T12:58:48.915Z,14.98
2019-05-05T13:01:24.596Z,15.07
2019-05-05T13:03:54.393Z,15.16
2019-05-05T13:06:24.166Z,15.22
2019-05-05T13:08:53.841Z,15.22
2019-05-05T13:11:23.916Z,15.19
2019-05-05T13:13:54.566Z,15.11
2019-05-05T13:16:25.033Z,15.00
2019-05-05T13:18:54.887Z,14.88
2019-05-05T13:21:44.081Z,14.73
2019-05-05T13:24:17.747Z,14.59
2019-05-05T13:26:49.755Z,14.46
2019-05-05T13:29:19.302Z,14.36
2019-05-05T13:31:48.822Z,14.29
2019-05-05T13:34:18.337Z,14.28
2019-05-05T13:36:47.808Z,14.30
2019-05-05T13:39:17.408Z,14.35
2019-05-05T13:41:46.870Z,14.38
2019-05-05T13:44:18.025Z,14.42
2019-05-05T13:46:47.626Z,14.46
2019-05-05T13:49:30.976Z,14.50
2019-05-05T13:52:02.150Z,14.53
2019-05-05T13:54:33.666Z,14.55
2019-05-05T13:57:03.851Z,14.57
2019-05-05T13:59:34.087Z,14.57
2019-05-05T14:02:03.791Z,14.58
2019-05-05T14:04:34.376Z,14.59
2019-05-05T14:07:04.199Z,14.62
2019-05-05T14:09:33.742Z,14.67
2019-05-05T14:12:04.135Z,14.71
2019-05-05T14:14:33.869Z,14.77
2019-05-05T14:17:04.120Z,14.81
2019-05-05T14:19:34.136Z,14.85
2019-05-05T14:22:04.416Z,14.88
2019-05-05T14:24:41.745Z,14.91
2019-05-05T14:27:11.341Z,14.92
2019-05-05T14:29:42.482Z,14.94
2019-05-05T14:32:13.699Z,14.97
2019-05-05T14:34:44.981Z,15.00
2019-05-05T14:37:29.280Z,15.01
2019-05-05T14:39:58.883Z,15.02
2019-05-05T14:42:28.445Z,15.02
2019-05-05T14:44:58.043Z,15.02
2019-05-05T14:47:27.593Z,15.04
2019-05-05T14:49:57.138Z,15.04
2019-05-05T14:52:26.637Z,15.04
2019-05-05T14:54:56.197Z,15.04
2019-05-05T14:57:28.110Z,15.02
2019-05-05T14:59:57.968Z,15.01
2019-05-05T15:02:27.646Z,15.03
2019-05-05T15:04:58.824Z,15.04
2019-05-05T15:07:29.972Z,15.07
2019-05-05T15:10:14.475Z,15.12
2019-05-05T15:12:48.577Z,15.17
2019-05-05T15:15:18.236Z,15.24
2019-05-05T15:17:47.738Z,15.33
2019-05-05T15:20:17.772Z,15.42
2019-05-05T15:22:47.365Z,15.54
2019-05-05T15:25:16.914Z,15.65
2019-05-05T15:27:46.446Z,15.73
2019-05-05T15:30:16.485Z,15.77
2019-05-05T15:32:45.971Z,15.73
2019-05-05T15:35:15.664Z,15.67
2019-05-05T15:37:46.240Z,15.54
2019-05-05T15:40:16.239Z,15.41
2019-05-05T15:42:45.823Z,15.27
2019-05-05T15:45:16.115Z,15.15
2019-05-05T15:47:45.610Z,15.03
2019-05-05T15:50:15.834Z,14.93
2019-05-05T15:52:45.516Z,14.82
2019-05-05T15:55:15.625Z,14.75
2019-05-05T15:57:45.103Z,14.68
2019-05-05T16:00:15.456Z,14.61
2019-05-05T16:02:44.930Z,14.55
2019-05-05T16:05:16.405Z,14.49
2019-05-05T16:07:45.996Z,14.42
2019-05-05T16:10:15.977Z,14.37
2019-05-05T16:12:45.605Z,14.32
2019-05-05T16:15:32.286Z,14.27
2019-05-05T16:18:07.479Z,14.25
2019-05-05T16:20:38.651Z,14.31
2019-05-05T16:23:10.661Z,14.39
2019-05-05T16:25:41.754Z,14.46
2019-05-05T16:28:11.412Z,14.47
2019-05-05T16:30:40.980Z,14.44
2019-05-05T16:33:10.578Z,14.55
2019-05-05T16:35:40.094Z,14.67
2019-05-05T16:38:09.608Z,14.94
2019-05-05T16:40:39.118Z,15.35
2019-05-05T16:43:08.757Z,15.88
2019-05-05T16:45:38.295Z,16.48
2019-05-05T16:48:07.857Z,17.06
2019-05-05T16:50:37.333Z,17.62
2019-05-05T16:53:07.274Z,18.17
2019-05-05T16:55:38.406Z,18.68
2019-05-05T16:58:07.971Z,19.15
2019-05-05T17:00:38.615Z,19.55
2019-05-05T17:03:08.204Z,19.93
2019-05-05T17:05:37.780Z,20.29
2019-05-05T17:08:07.296Z,20.60
2019-05-05T17:10:36.774Z,20.87
2019-05-05T17:13:07.915Z,21.09
2019-05-05T17:15:37.166Z,21.30
2019-05-05T17:18:32.983Z,21.52
2019-05-05T17:20:58.783Z,21.68
2019-05-05T17:23:28.359Z,21.82
2019-05-05T17:25:57.843Z,21.85
2019-05-05T17:28:27.404Z,21.85
2019-05-05T17:30:57.001Z,21.85
2019-05-05T17:33:26.647Z,21.84
2019-05-05T17:35:56.161Z,21.73
2019-05-05T17:38:25.634Z,21.66
2019-05-05T17:40:54.998Z,21.56
2019-05-05T17:43:33.982Z,21.45
2019-05-05T17:46:13.631Z,21.23
2019-05-05T17:48:47.743Z,20.86
2019-05-05T17:51:25.028Z,20.32
2019-05-05T17:53:58.903Z,19.72
2019-05-05T17:56:28.425Z,19.12
2019-05-05T17:58:57.913Z,18.58
2019-05-05T18:01:27.399Z,18.08
2019-05-05T18:03:56.953Z,17.65
2019-05-05T18:06:28.122Z,17.33
2019-05-05T18:08:59.338Z,17.04
2019-05-05T18:11:35.243Z,16.75
2019-05-05T18:14:04.349Z,16.46
2019-05-05T18:16:34.000Z,16.30
2019-05-05T18:19:04.502Z,16.25
2019-05-05T18:21:34.804Z,16.23
2019-05-05T18:24:04.978Z,16.15
2019-05-05T18:26:34.630Z,15.96
2019-05-05T18:29:04.212Z,15.73
2019-05-05T18:31:33.860Z,15.47
2019-05-05T18:34:03.985Z,15.20
2019-05-05T18:36:33.657Z,14.95
2019-05-05T18:39:05.076Z,14.70
2019-05-05T18:44:36.311Z,14.27
2019-05-05T18:47:17.867Z,14.05
2019-05-05T18:49:44.658Z,13.86
2019-05-05T18:52:14.303Z,13.67
2019-05-05T18:54:43.957Z,13.48
2019-05-05T18:57:13.571Z,13.28
2019-05-05T18:59:44.676Z,13.11
2019-05-05T19:02:24.022Z,12.93
2019-05-05T19:05:01.295Z,12.78
2019-05-05T19:07:33.700Z,12.63
2019-05-05T19:10:04.016Z,12.49
2019-05-05T19:12:34.646Z,12.37
2019-05-05T19:15:06.040Z,12.27
2019-05-05T19:17:35.680Z,12.17
2019-05-05T19:20:09.885Z,12.07
2019-05-05T19:22:39.400Z,11.99
2019-05-05T19:25:17.724Z,11.91
2019-05-05T19:27:47.520Z,11.84
2019-05-05T19:30:18.196Z,11.78
2019-05-05T19:32:47.766Z,11.72
2019-05-05T19:35:17.383Z,11.67
2019-05-05T19:37:46.824Z,11.61
2019-05-05T19:40:16.475Z,11.57
2019-05-05T19:42:46.308Z,11.52
2019-05-05T19:45:16.648Z,11.47
2019-05-05T19:47:46.263Z,11.42
2019-05-05T19:50:26.575Z,11.37
2019-05-05T19:52:56.176Z,11.30
2019-05-05T19:55:25.796Z,11.22
2019-05-05T19:57:55.401Z,11.14
2019-05-05T20:00:26.293Z,11.08
2019-05-05T20:03:04.578Z,11.00
2019-05-05T20:05:27.323Z,10.93
2019-05-05T20:07:56.818Z,10.85
2019-05-05T20:10:26.343Z,10.77
2019-05-05T20:12:55.805Z,10.68
2019-05-05T20:15:26.905Z,10.59
2019-05-05T20:17:56.500Z,10.52
2019-05-05T20:20:26.906Z,10.45
2019-05-05T20:22:56.456Z,10.38
2019-05-05T20:25:26.004Z,10.32
2019-05-05T20:27:56.030Z,10.25
2019-05-05T20:30:25.869Z,10.17
2019-05-05T20:32:59.703Z,10.09
2019-05-05T20:35:34.644Z,10.03
2019-05-05T20:38:05.849Z,9.98
2019-05-05T20:40:37.004Z,9.91
2019-05-05T20:43:06.516Z,9.86
2019-05-05T20:45:36.157Z,9.80
2019-05-05T20:48:05.975Z,9.74
2019-05-05T20:50:35.532Z,9.67
2019-05-05T20:53:05.107Z,9.62
2019-05-05T20:55:34.687Z,9.55
2019-05-05T20:58:04.786Z,9.48
2019-05-05T21:00:34.898Z,9.41
2019-05-05T21:03:04.966Z,9.32
2019-05-05T21:05:34.720Z,9.25
2019-05-05T21:08:04.973Z,9.15
2019-05-05T21:10:34.919Z,9.07
2019-05-05T21:13:04.583Z,8.97
2019-05-05T21:15:34.332Z,8.88
2019-05-05T21:18:04.948Z,8.79
2019-05-05T21:20:34.914Z,8.69
2019-05-05T21:23:11.775Z,8.62
2019-05-05T21:25:44.478Z,8.54
2019-05-05T21:28:14.627Z,8.44
2019-05-05T21:30:44.282Z,8.36
2019-05-05T21:33:13.772Z,8.29
2019-05-05T21:35:44.134Z,8.21
2019-05-05T21:38:14.237Z,8.14
2019-05-05T21:40:44.112Z,8.08
2019-05-05T21:43:15.350Z,8.00
2019-05-05T21:45:45.037Z,7.95
2019-05-05T21:48:14.587Z,7.88
2019-05-05T21:50:48.390Z,7.83
2019-05-05T21:53:19.528Z,7.77
2019-05-05T21:55:54.803Z,7.70
2019-05-05T21:58:31.497Z,7.63
2019-05-05T22:01:04.417Z,7.58
2019-05-05T22:03:37.512Z,7.49
2019-05-05T22:06:07.310Z,7.43
2019-05-05T22:08:37.040Z,7.36
2019-05-05T22:11:06.936Z,7.30
2019-05-05T22:13:36.783Z,7.23
2019-05-05T22:16:06.325Z,7.16
2019-05-05T22:18:35.897Z,7.10
2019-05-05T22:21:07.163Z,7.03
2019-05-05T22:23:36.901Z,6.98
2019-05-05T22:26:06.434Z,6.90
2019-05-05T22:28:35.925Z,6.83
2019-05-05T22:31:05.445Z,6.77
2019-05-05T22:33:34.972Z,6.70
2019-05-05T22:36:24.409Z,6.63
2019-05-05T22:38:53.912Z,6.58
2019-05-05T22:41:24.324Z,6.52
2019-05-05T22:43:54.037Z,6.45
2019-05-05T22:46:23.857Z,6.38
2019-05-05T22:48:54.512Z,6.32
2019-05-05T22:51:24.206Z,6.25
2019-05-05T22:53:54.803Z,6.19
2019-05-05T22:56:24.472Z,6.12
2019-05-05T22:58:54.709Z,6.07
2019-05-05T23:01:25.180Z,6.00
2019-05-05T23:03:58.964Z,5.93
2019-05-05T23:06:39.304Z,5.87
2019-05-05T23:09:11.773Z,5.80
2019-05-05T23:11:44.020Z,5.74
2019-05-05T23:14:28.373Z,5.67
2019-05-05T23:17:01.897Z,5.62
2019-05-05T23:19:33.639Z,5.56
2019-05-05T23:22:07.882Z,5.50
2019-05-05T23:24:54.198Z,5.45
2019-05-05T23:27:41.313Z,5.39
2019-05-05T23:30:11.097Z,5.33
2019-05-05T23:32:40.578Z,5.28
2019-05-05T23:35:10.386Z,5.23
2019-05-05T23:37:39.856Z,5.17
2019-05-05T23:40:09.622Z,5.13
2019-05-05T23:42:39.111Z,5.09
2019-05-05T23:45:08.751Z,5.04
2019-05-05T23:47:38.246Z,5.01
2019-05-05T23:50:07.848Z,4.96
2019-05-05T23:52:37.356Z,4.92
2019-05-05T23:55:07.699Z,4.90
2019-05-05T23:57:37.746Z,4.86
